EZY18KT LERS-EGCC
Flight info
| Callsign | EZY18KT |
|---|---|
| Flight time | N/A |
| Altitude | 38000 |
| Route | NATPI DCT EVNAM DCT TUPAR UN861 ANG DCT AKIKI UN867 AVANT UM184 HEMEL T420 ELVOS |
| Aircraft | A320/M-SDE3FGHIRWY/LB1 |
Departure
| Time | 2026-04-25 17:50 |
|---|---|
| Airport | Reus Airport (LERS) |
Arrival
| Time | N/A |
|---|---|
| Airport | Manchester Airport (EGCC) |
| Time | Latitude | Longitude | Altitude | Speed | Heading |
|---|---|---|---|---|---|
| 2026-04-25 17:43 | 41.14767 | 1.16205 | 242 ft | 11 kts | 68° |
| 2026-04-25 17:43 | 41.14800 | 1.16317 | 242 ft | 14 kts | 68° |
| 2026-04-25 17:44 | 41.14840 | 1.16454 | 242 ft | 18 kts | 69° |
| 2026-04-25 17:44 | 41.14889 | 1.16624 | 242 ft | 21 kts | 69° |
| 2026-04-25 17:44 | 41.14944 | 1.16810 | 242 ft | 23 kts | 68° |
| 2026-04-25 17:44 | 41.15005 | 1.17017 | 242 ft | 25 kts | 69° |
| 2026-04-25 17:45 | 41.15063 | 1.17220 | 241 ft | 24 kts | 69° |
| 2026-04-25 17:45 | 41.15084 | 1.17291 | 241 ft | 25 kts | 68° |
| 2026-04-25 17:45 | 41.15182 | 1.17624 | 241 ft | 22 kts | 70° |
| 2026-04-25 17:45 | 41.15240 | 1.17820 | 241 ft | 23 kts | 69° |
| 2026-04-25 17:46 | 41.15293 | 1.18005 | 241 ft | 22 kts | 68° |
| 2026-04-25 17:46 | 41.15348 | 1.18198 | 241 ft | 19 kts | 70° |
| 2026-04-25 17:46 | 41.15347 | 1.18312 | 241 ft | 12 kts | 140° |
| 2026-04-25 17:46 | 41.15297 | 1.18334 | 241 ft | 12 kts | 185° |
| 2026-04-25 17:47 | 41.15216 | 1.18290 | 241 ft | 11 kts | 199° |
| 2026-04-25 17:47 | 41.15183 | 1.18237 | 241 ft | 0 kts | 248° |
| 2026-04-25 17:49 | 41.15177 | 1.18216 | 241 ft | 11 kts | 248° |
| 2026-04-25 17:49 | 41.15070 | 1.17849 | 242 ft | 81 kts | 249° |
| 2026-04-25 17:49 | 41.14786 | 1.16873 | 242 ft | 143 kts | 249° |
| 2026-04-25 17:49 | 41.14386 | 1.15509 | 628 ft | 163 kts | 247° |
| 2026-04-25 17:50 | 41.13899 | 1.14158 | 1397 ft | 163 kts | 233° |
| 2026-04-25 17:50 | 41.13242 | 1.12865 | 1993 ft | 176 kts | 236° |
| 2026-04-25 17:50 | 41.12566 | 1.11413 | 2469 ft | 194 kts | 238° |
| 2026-04-25 17:50 | 41.11852 | 1.09805 | 2923 ft | 211 kts | 236° |
| 2026-04-25 17:51 | 41.11015 | 1.08058 | 3343 ft | 237 kts | 235° |
| 2026-04-25 17:51 | 41.10091 | 1.06144 | 4010 ft | 251 kts | 236° |
| 2026-04-25 17:51 | 41.09156 | 1.04171 | 4950 ft | 255 kts | 237° |
| 2026-04-25 17:51 | 41.08223 | 1.02134 | 5824 ft | 261 kts | 238° |
| 2026-04-25 17:52 | 41.07302 | 1.00058 | 6788 ft | 261 kts | 239° |
| 2026-04-25 17:52 | 41.07007 | 0.99380 | 7090 ft | 262 kts | 239° |
| 2026-04-25 17:52 | 41.05461 | 0.95827 | 8515 ft | 270 kts | 240° |
| 2026-04-25 17:52 | 41.04514 | 0.93649 | 9311 ft | 282 kts | 240° |
| 2026-04-25 17:53 | 41.03574 | 0.91272 | 9835 ft | 299 kts | 251° |
| 2026-04-25 17:53 | 41.03325 | 0.88542 | 10592 ft | 302 kts | 278° |
| 2026-04-25 17:53 | 41.03957 | 0.85900 | 11405 ft | 302 kts | 302° |
| 2026-04-25 17:53 | 41.05343 | 0.83803 | 12023 ft | 310 kts | 326° |
| 2026-04-25 17:54 | 41.07347 | 0.82677 | 12517 ft | 321 kts | 352° |
| 2026-04-25 17:54 | 41.09606 | 0.82812 | 12929 ft | 334 kts | 17° |
| 2026-04-25 17:54 | 41.11846 | 0.83848 | 13396 ft | 348 kts | 21° |
| 2026-04-25 17:54 | 41.14141 | 0.84961 | 14034 ft | 355 kts | 21° |
| 2026-04-25 17:55 | 41.16476 | 0.86097 | 14710 ft | 359 kts | 21° |
| 2026-04-25 17:55 | 41.18831 | 0.87240 | 15371 ft | 363 kts | 20° |
| 2026-04-25 17:55 | 41.21226 | 0.88400 | 16010 ft | 368 kts | 21° |
| 2026-04-25 17:55 | 41.23640 | 0.89562 | 16679 ft | 372 kts | 21° |
| 2026-04-25 17:56 | 41.26091 | 0.90735 | 17305 ft | 377 kts | 21° |
| 2026-04-25 17:56 | 41.28570 | 0.91919 | 17969 ft | 380 kts | 21° |
| 2026-04-25 17:56 | 41.31076 | 0.93118 | 18551 ft | 385 kts | 21° |
| 2026-04-25 17:56 | 41.33578 | 0.94319 | 19089 ft | 389 kts | 21° |
| 2026-04-25 17:57 | 41.36077 | 0.95713 | 19620 ft | 391 kts | 28° |
| 2026-04-25 17:57 | 41.38381 | 0.97673 | 19992 ft | 395 kts | 36° |
| 2026-04-25 17:57 | 41.40614 | 0.99797 | 20084 ft | 394 kts | 36° |
| 2026-04-25 17:57 | 41.41365 | 1.00514 | 20096 ft | 394 kts | 36° |
| 2026-04-25 17:58 | 41.45073 | 1.04059 | 20096 ft | 394 kts | 36° |
| 2026-04-25 17:58 | 41.47297 | 1.06188 | 20094 ft | 394 kts | 36° |
| 2026-04-25 17:58 | 41.49526 | 1.08321 | 20107 ft | 394 kts | 36° |
| 2026-04-25 17:58 | 41.51755 | 1.10454 | 20104 ft | 394 kts | 36° |
| 2026-04-25 17:59 | 41.54103 | 1.12332 | 20103 ft | 395 kts | 26° |
| 2026-04-25 17:59 | 41.56682 | 1.13669 | 20490 ft | 400 kts | 17° |
| 2026-04-25 17:59 | 41.59357 | 1.14569 | 21033 ft | 403 kts | 14° |
| 2026-04-25 17:59 | 41.62091 | 1.15459 | 21583 ft | 405 kts | 14° |
| 2026-04-25 18:00 | 41.64840 | 1.16360 | 22114 ft | 408 kts | 14° |
| 2026-04-25 18:00 | 41.67604 | 1.17264 | 22637 ft | 411 kts | 14° |
| 2026-04-25 18:00 | 41.70396 | 1.18178 | 23129 ft | 414 kts | 14° |
| 2026-04-25 18:00 | 41.73207 | 1.19098 | 23651 ft | 417 kts | 14° |
| 2026-04-25 18:01 | 41.76034 | 1.20021 | 24061 ft | 420 kts | 13° |
| 2026-04-25 18:01 | 41.78885 | 1.20949 | 24458 ft | 423 kts | 13° |
| 2026-04-25 18:01 | 41.81760 | 1.21887 | 24854 ft | 426 kts | 13° |
| 2026-04-25 18:01 | 41.84648 | 1.22836 | 25257 ft | 428 kts | 13° |
| 2026-04-25 18:02 | 41.87549 | 1.23789 | 25658 ft | 431 kts | 13° |
| 2026-04-25 18:02 | 41.90469 | 1.24746 | 26057 ft | 433 kts | 13° |
| 2026-04-25 18:02 | 41.93404 | 1.25708 | 26457 ft | 435 kts | 12° |
| 2026-04-25 18:02 | 41.96358 | 1.26675 | 26848 ft | 438 kts | 12° |
| 2026-04-25 18:03 | 41.99322 | 1.27647 | 27231 ft | 440 kts | 13° |
| 2026-04-25 18:03 | 42.02307 | 1.28627 | 27631 ft | 442 kts | 13° |
| 2026-04-25 18:03 | 42.05299 | 1.29613 | 28009 ft | 444 kts | 13° |
| 2026-04-25 18:03 | 42.08312 | 1.30610 | 28383 ft | 446 kts | 13° |
| 2026-04-25 18:04 | 42.11341 | 1.31611 | 28749 ft | 449 kts | 13° |
| 2026-04-25 18:04 | 42.14343 | 1.32603 | 29093 ft | 451 kts | 13° |
| 2026-04-25 18:04 | 42.17399 | 1.33616 | 29453 ft | 453 kts | 12° |
| 2026-04-25 18:04 | 42.20508 | 1.34310 | 29832 ft | 454 kts | 4° |
| 2026-04-25 18:05 | 42.23664 | 1.34356 | 30169 ft | 455 kts | 355° |
| 2026-04-25 18:05 | 42.26815 | 1.33791 | 30453 ft | 456 kts | 349° |
| 2026-04-25 18:05 | 42.29947 | 1.33086 | 30823 ft | 455 kts | 349° |
| 2026-04-25 18:05 | 42.33075 | 1.32381 | 31219 ft | 454 kts | 349° |
| 2026-04-25 18:06 | 42.36200 | 1.31682 | 31623 ft | 453 kts | 350° |
| 2026-04-25 18:06 | 42.39305 | 1.30991 | 32004 ft | 452 kts | 350° |
| 2026-04-25 18:06 | 42.42380 | 1.30312 | 32347 ft | 453 kts | 349° |
| 2026-04-25 18:06 | 42.45493 | 1.29623 | 32705 ft | 453 kts | 349° |
| 2026-04-25 18:07 | 42.48598 | 1.28933 | 33075 ft | 452 kts | 349° |
| 2026-04-25 18:07 | 42.50693 | 1.28467 | 33340 ft | 451 kts | 349° |
| 2026-04-25 18:07 | 42.53793 | 1.27775 | 33746 ft | 450 kts | 349° |
| 2026-04-25 18:07 | 42.56877 | 1.27085 | 34136 ft | 449 kts | 349° |
| 2026-04-25 18:08 | 42.59921 | 1.26404 | 34477 ft | 448 kts | 349° |
| 2026-04-25 18:08 | 42.63041 | 1.25702 | 34798 ft | 448 kts | 349° |
| 2026-04-25 18:08 | 42.66081 | 1.25012 | 35102 ft | 448 kts | 349° |
| 2026-04-25 18:08 | 42.69157 | 1.24313 | 35418 ft | 448 kts | 349° |
| 2026-04-25 18:09 | 42.72232 | 1.23617 | 35726 ft | 448 kts | 349° |
| 2026-04-25 18:09 | 42.75320 | 1.23018 | 36003 ft | 448 kts | 351° |
| 2026-04-25 18:09 | 42.78418 | 1.22552 | 36263 ft | 448 kts | 353° |
| 2026-04-25 18:09 | 42.80522 | 1.22287 | 36447 ft | 448 kts | 353° |
| 2026-04-25 18:10 | 42.84633 | 1.21815 | 36799 ft | 448 kts | 353° |
| 2026-04-25 18:10 | 42.87740 | 1.21456 | 37053 ft | 447 kts | 353° |
| 2026-04-25 18:10 | 42.90840 | 1.21074 | 37323 ft | 447 kts | 353° |
| 2026-04-25 18:10 | 42.93934 | 1.20666 | 37588 ft | 447 kts | 352° |
| 2026-04-25 18:11 | 42.97027 | 1.20237 | 37851 ft | 446 kts | 352° |
| 2026-04-25 18:11 | 43.00116 | 1.19799 | 38096 ft | 446 kts | 352° |
| 2026-04-25 18:11 | 43.03206 | 1.19360 | 38176 ft | 446 kts | 352° |
| 2026-04-25 18:12 | 43.09383 | 1.18489 | 38182 ft | 446 kts | 352° |
| 2026-04-25 18:12 | 43.15554 | 1.17636 | 38176 ft | 446 kts | 352° |
| 2026-04-25 18:13 | 43.21722 | 1.16784 | 38174 ft | 445 kts | 352° |
| 2026-04-25 18:13 | 43.27856 | 1.15929 | 38168 ft | 446 kts | 351° |
| 2026-04-25 18:14 | 43.37130 | 1.14640 | 38174 ft | 446 kts | 351° |
| 2026-04-25 18:14 | 43.43308 | 1.13775 | 38167 ft | 447 kts | 351° |
| 2026-04-25 18:15 | 43.49511 | 1.12896 | 38152 ft | 449 kts | 351° |
| 2026-04-25 18:15 | 43.55733 | 1.12017 | 38153 ft | 450 kts | 351° |
| 2026-04-25 18:16 | 43.61847 | 1.10420 | 38157 ft | 445 kts | 337° |
| 2026-04-25 18:17 | 43.70351 | 1.05436 | 38160 ft | 443 kts | 333° |
| 2026-04-25 18:17 | 43.76007 | 1.02055 | 38164 ft | 443 kts | 333° |
| 2026-04-25 18:18 | 43.81640 | 0.98686 | 38170 ft | 443 kts | 333° |
| 2026-04-25 18:18 | 43.87297 | 0.95280 | 38177 ft | 443 kts | 332° |
| 2026-04-25 18:19 | 43.92948 | 0.91869 | 38182 ft | 442 kts | 333° |
| 2026-04-25 18:19 | 43.98591 | 0.88466 | 38179 ft | 442 kts | 333° |
| 2026-04-25 18:20 | 44.04231 | 0.85051 | 38182 ft | 442 kts | 332° |
| 2026-04-25 18:20 | 44.09870 | 0.81640 | 38184 ft | 441 kts | 332° |
| 2026-04-25 18:21 | 44.15495 | 0.78231 | 38181 ft | 441 kts | 332° |
| 2026-04-25 18:21 | 44.21124 | 0.74800 | 38176 ft | 441 kts | 333° |
| 2026-04-25 18:22 | 44.26712 | 0.71382 | 38171 ft | 441 kts | 333° |
| 2026-04-25 18:22 | 44.32339 | 0.67938 | 38172 ft | 441 kts | 333° |
| 2026-04-25 18:23 | 44.37962 | 0.64491 | 38171 ft | 441 kts | 333° |
| 2026-04-25 18:23 | 44.43588 | 0.61039 | 38191 ft | 441 kts | 333° |
| 2026-04-25 18:24 | 44.49167 | 0.57618 | 38189 ft | 440 kts | 333° |
| 2026-04-25 18:24 | 44.54777 | 0.54165 | 38189 ft | 440 kts | 333° |
| 2026-04-25 18:25 | 44.60374 | 0.50701 | 38186 ft | 440 kts | 333° |
| 2026-04-25 18:25 | 44.65965 | 0.47235 | 38191 ft | 439 kts | 333° |
| 2026-04-25 18:26 | 44.71549 | 0.43763 | 38188 ft | 438 kts | 333° |
| 2026-04-25 18:26 | 44.77128 | 0.40296 | 38185 ft | 438 kts | 333° |
| 2026-04-25 18:27 | 44.82704 | 0.36830 | 38181 ft | 437 kts | 333° |
| 2026-04-25 18:27 | 44.88262 | 0.33362 | 38180 ft | 437 kts | 333° |
| 2026-04-25 18:28 | 44.93816 | 0.29892 | 38182 ft | 436 kts | 333° |
| 2026-04-25 18:28 | 44.99372 | 0.26415 | 38185 ft | 436 kts | 333° |
| 2026-04-25 18:29 | 45.07646 | 0.21196 | 38181 ft | 436 kts | 333° |
| 2026-04-25 18:30 | 45.18718 | 0.14211 | 38173 ft | 435 kts | 333° |
| 2026-04-25 18:30 | 45.24250 | 0.10717 | 38184 ft | 435 kts | 333° |
| 2026-04-25 18:31 | 45.29778 | 0.07208 | 38180 ft | 435 kts | 333° |
| 2026-04-25 18:31 | 45.35298 | 0.03692 | 38173 ft | 435 kts | 333° |
| 2026-04-25 18:32 | 45.40827 | 0.00173 | 38178 ft | 435 kts | 333° |
| 2026-04-25 18:32 | 45.46303 | -0.03327 | 38179 ft | 434 kts | 334° |
| 2026-04-25 18:33 | 45.51810 | -0.06854 | 38178 ft | 433 kts | 334° |
| 2026-04-25 18:33 | 45.57315 | -0.10377 | 38178 ft | 433 kts | 334° |
| 2026-04-25 18:34 | 45.62807 | -0.13902 | 38185 ft | 433 kts | 334° |
| 2026-04-25 18:34 | 45.68301 | -0.17442 | 38181 ft | 433 kts | 334° |
| 2026-04-25 18:35 | 45.73790 | -0.20988 | 38173 ft | 432 kts | 334° |
| 2026-04-25 18:35 | 45.79270 | -0.24533 | 38177 ft | 432 kts | 334° |
| 2026-04-25 18:36 | 45.84724 | -0.28067 | 38174 ft | 432 kts | 334° |
| 2026-04-25 18:36 | 45.90204 | -0.31625 | 38173 ft | 432 kts | 333° |
| 2026-04-25 18:37 | 45.95685 | -0.35193 | 38168 ft | 432 kts | 333° |
| 2026-04-25 18:37 | 46.01166 | -0.38768 | 38173 ft | 432 kts | 333° |
| 2026-04-25 18:38 | 46.06643 | -0.42349 | 38174 ft | 432 kts | 333° |
| 2026-04-25 18:38 | 46.12122 | -0.45942 | 38162 ft | 432 kts | 333° |
| 2026-04-25 18:39 | 46.17567 | -0.49516 | 38176 ft | 432 kts | 333° |
| 2026-04-25 18:39 | 46.23037 | -0.53117 | 38170 ft | 432 kts | 333° |
| 2026-04-25 18:40 | 46.28509 | -0.56726 | 38163 ft | 432 kts | 333° |
| 2026-04-25 18:40 | 46.33981 | -0.60348 | 38162 ft | 432 kts | 333° |
| 2026-04-25 18:41 | 46.39449 | -0.63975 | 38161 ft | 432 kts | 334° |
| 2026-04-25 18:41 | 46.45175 | -0.66640 | 38156 ft | 436 kts | 350° |
| 2026-04-25 18:42 | 46.49174 | -0.67307 | 38150 ft | 436 kts | 351° |
| 2026-04-25 18:42 | 46.57212 | -0.68661 | 38154 ft | 437 kts | 351° |
| 2026-04-25 18:43 | 46.63250 | -0.69695 | 38156 ft | 437 kts | 351° |
| 2026-04-25 18:43 | 46.69297 | -0.70710 | 38155 ft | 437 kts | 351° |
| 2026-04-25 18:44 | 46.75337 | -0.71727 | 38151 ft | 437 kts | 351° |
| 2026-04-25 18:44 | 46.81372 | -0.72753 | 38147 ft | 437 kts | 351° |
| 2026-04-25 18:45 | 46.87418 | -0.73775 | 38150 ft | 437 kts | 351° |
| 2026-04-25 18:45 | 46.93483 | -0.74802 | 38154 ft | 438 kts | 351° |
| 2026-04-25 18:46 | 46.99515 | -0.75831 | 38156 ft | 437 kts | 351° |
| 2026-04-25 18:46 | 47.05562 | -0.76863 | 38156 ft | 437 kts | 351° |
| 2026-04-25 18:47 | 47.11610 | -0.77896 | 38151 ft | 437 kts | 351° |
| 2026-04-25 18:47 | 47.17650 | -0.78937 | 38141 ft | 437 kts | 351° |
| 2026-04-25 18:48 | 47.23653 | -0.79972 | 38148 ft | 437 kts | 352° |
| 2026-04-25 18:48 | 47.29691 | -0.81014 | 38153 ft | 437 kts | 351° |
| 2026-04-25 18:49 | 47.35726 | -0.82061 | 38156 ft | 437 kts | 351° |
| 2026-04-25 18:49 | 47.41766 | -0.83111 | 38154 ft | 437 kts | 352° |
| 2026-04-25 18:50 | 47.47807 | -0.84159 | 38155 ft | 437 kts | 351° |
| 2026-04-25 18:50 | 47.53847 | -0.85220 | 38162 ft | 437 kts | 351° |
| 2026-04-25 18:51 | 47.57829 | -0.86097 | 38165 ft | 436 kts | 348° |
| 2026-04-25 18:51 | 47.65798 | -0.88311 | 38165 ft | 435 kts | 347° |
| 2026-04-25 18:52 | 47.71715 | -0.89976 | 38163 ft | 435 kts | 348° |
| 2026-04-25 18:52 | 47.77683 | -0.91568 | 38164 ft | 436 kts | 348° |
| 2026-04-25 18:53 | 47.83658 | -0.93141 | 38170 ft | 436 kts | 348° |
| 2026-04-25 18:53 | 47.89638 | -0.94731 | 38179 ft | 436 kts | 348° |
| 2026-04-25 18:54 | 47.97591 | -0.96865 | 38175 ft | 436 kts | 348° |
| 2026-04-25 18:55 | 48.04537 | -0.98737 | 38177 ft | 436 kts | 348° |
| 2026-04-25 18:55 | 48.09542 | -1.00084 | 38174 ft | 436 kts | 348° |
| 2026-04-25 18:56 | 48.15478 | -1.01678 | 38179 ft | 436 kts | 348° |
| 2026-04-25 18:56 | 48.21454 | -1.03289 | 38179 ft | 437 kts | 348° |
| 2026-04-25 18:57 | 48.27439 | -1.04905 | 38186 ft | 437 kts | 348° |
| 2026-04-25 18:57 | 48.33424 | -1.06536 | 38186 ft | 437 kts | 348° |
| 2026-04-25 18:58 | 48.39433 | -1.08189 | 38190 ft | 438 kts | 348° |
| 2026-04-25 18:58 | 48.48425 | -1.10651 | 38199 ft | 438 kts | 348° |
| 2026-04-25 18:59 | 48.60379 | -1.13925 | 38201 ft | 438 kts | 347° |
| 2026-04-25 19:00 | 48.69369 | -1.16411 | 38212 ft | 438 kts | 347° |
| 2026-04-25 19:01 | 48.72362 | -1.17240 | 38211 ft | 437 kts | 347° |